Архив погоды в Александровом Гае

Метеограмма Александров Гай
Среда, 24 Мая
Время местн. Темп Ветер Видим Явления Облачность нижн/средн/верх Атм. давл. Влжн Точка росы ВНГО R Сост. почвы Tg s
Напр Скр Прв ур.ст ур.м изм
03:00 +1.7° Ю-З 1 - 10 км - ясно 762 764 +0.5 85% -0.5° более 2.5 км - - - -
00:00 +4.1° Ю,Ю-З 1 - 10 км - ясно 761 764 +0.9 85% +1.8° более 2.5 км - - - -
Вторник, 23 Мая
Время местн. Темп Ветер Видим Явления Облачность нижн/средн/верх Атм. давл. Влжн Точка росы ВНГО R Сост. почвы Tg s
Напр Скр Прв ур.ст ур.м изм
21:00 +8.1° С-З 1 - 10 км - ясно 761 763 +1.5 64% +1.8° более 2.5 км - - - -
18:00 +15.5° С 3 - 10 км - переменная облачность 759 761 +0.7 30% -1.9° 1.5 км 0 - - -
15:00 +15.9° С,С-З 3 - 10 км - переменная облачность 758 761 +1.1 33% -0.3° 1.5 км - - - -
12:00 +16.2° С 4 - 10 км - облачно с прояснениями 757 760 +1.1 34% +0.2° 1.5 км - - - -
09:00 +14.2° С 4 - 10 км облака рассеиваются {дождь} переменная облачность 756 758 +1.4 53% +4.9° 1.5 км - - - -
06:00 +8.8° С 2 - 10 км облака рассеиваются {дождь} преимущественно облачно 755 757 +1.5 90% +7.2° - - Влажная (без луж) - -
03:00 +9.6° С 3 - 4 км слабый непрерывный дождь облачно 753 756 +0.2 93% +8.6° 600 м - - - -
00:00 +10.3° С 3 - 10 км дождь облачно 753 755 +0.6 89% +8.5° 600 м - - - -
Понедельник, 22 Мая
Время местн. Темп Ветер Видим Явления Облачность нижн/средн/верх Атм. давл. Влжн Точка росы ВНГО R Сост. почвы Tg s
Напр Скр Прв ур.ст ур.м изм
21:00 +11.4° С 2 - 10 км дождь облачно 752 754 +0.8 87% +9.4° - - - - -
18:00 +14.2° С 4 - 10 км - облачно 751 754 +1.2 76% +10° - - - - -
15:00 +17.4° С 3 - 10 км - преимущественно облачно 750 752 +0.5 70% +11.9° 1.5 км - - - -
12:00 +16.6° С 3 - 10 км - облачно 750 752 +1 76% +12.4° 1 км - - - -
09:00 +14.6° С 4 - 10 км небо без изменений {дождь} облачно 749 751 +1.1 87% +12.5° 1 км - - - -
06:00 +14.3° С 3 - 4 км дымка {дождь} облачно 748 750 +0.9 93% +13.2° 1 км - Влажная (без луж) - -
03:00 +14° З 3 - 10 км - переменная облачность 747 749 -0.5 92% +12.8° более 2.5 км - - - -
00:00 +14.7° Ю-З 3 - 10 км - ясно 747 749 -0.2 92% +13.4° более 2.5 км - - - -
Воскресенье, 21 Мая
Время местн. Темп Ветер Видим Явления Облачность нижн/средн/верх Атм. давл. Влжн Точка росы ВНГО R Сост. почвы Tg s
Напр Скр Прв ур.ст ур.м изм
21:00 +16.4° Ю-З 3 - 10 км - преимущественно облачно 747 750 +0.5 77% +12.4° 1 км - - - -
18:00 +19.7° З,Ю-З 6 - 10 км - переменная облачность 747 749 -0.2 59% +11.5° 1.5 км - - - -
15:00 +20.4° З 5 11 10 км - преимущественно облачно 747 749 -0.2 65% +13.5° более 2.5 км - - - -
12:00 +18.9° З,Ю-З 7 10 10 км - преимущественно облачно 747 750 +0.2 72% +13.7° 1.5 км - - - -
09:00 +17° З 3 - 10 км облака развиваются {дождь} облачно 747 749 -0.4 86% +14.6° - - - - -
06:00 +15.9° Ю-В 1 - 10 км облака рассеиваются {дождь} облачно с прояснениями 747 750 -1.5 92% +14.6° более 2.5 км 4 Влажная (без луж) +15° -
03:00 +15.1° В,Ю-В 1 - 4 км слабый непрерывный дождь облачно 749 751 -0.8 93% +13.9° 600 м - - - -
00:00 +17.5° В,Ю-В 1 - 10 км небо без изменений {дождь} облачно 750 752 -1 76% +13.3° 1 км - - - -